EPZG/IEG METAR and TAF weather

Enter ICAO airport designator
Station Type Date Time Source
EPZG METAR 2019/12/11 15:00 UTC NOAA

EPZG 111500Z 10001KT CAVOK 01/M02 Q1011


Station Type Date Time Source
EPZG Decoded METAR 2019/12/11 15:00 UTC NOAA

Zielona Gora, Poland (EPZG) 51-56N 015-32E 192M
Dec 11, 2019 - 10:00 AM EST / 2019.12.11 1500 UTC
Wind: from the E (100 degrees) at 1 MPH (1 KT):0
Visibility: greater than 7 mile(s):0
Temperature: 33 F (1 C)
Dew Point: 28 F (-2 C)
Relative Humidity: 80%
Pressure (altimeter): 29.85 in. Hg (1011 hPa)
ob: EPZG 111500Z 10001KT CAVOK 01/M02 Q1011
cycle: 15

Station Type Date Time Source
EPZG TAF 2012/06/28 21:49 UTC NOAA

TAF EPZG 282000Z 2821/2906 VRB02KT CAVOK
TEMPO 2823/2904 5000 BR PROB30 2900/2904 1500 BR BKN005

Example: see airport list